Flight Track Log - Related Links

Times and Time Zones

All times are in EDT time to prevent confusion due to time zone crossing. See the N137TK flight status page for this flight to view local times or setup timezone preferences in your user account.

Time Position Orientation Groundspeed Altitude Reporting Facility
EDT Latitude Longitude Course Direction KTS MPH feet Rate Location/Type
Thu 08:17:46 AM 35.5153 -82.5589 North 158 182 6,100  Level Atlanta Center
Thu 08:18:46 AM 35.5569 -82.5608 358° North 163 188 7,900 1,800 Climbing Atlanta Center
Thu 08:19:46 AM 35.6031 -82.5572 North 163 188 9,700 1,650 Climbing Atlanta Center
Thu 08:20:46 AM 35.6531 -82.5539 North 163 188 11,200 1,450 Climbing Atlanta Center
Thu 08:21:46 AM 35.7197 -82.5500 North 189 217 12,600 1,500 Climbing Atlanta Center
Thu 08:22:00 AM 35.8242 -82.5126 North  Level FlightAware Approximate
Thu 08:22:46 AM 35.7758 -82.5439 North 204 235 14,200  Level Atlanta Center
Thu 08:23:46 AM 35.8364 -82.5403 North 211 243 15,900 1,650 Climbing Atlanta Center
Thu 08:24:46 AM 35.8947 -82.5367 North 217 250 17,500 1,450 Climbing Atlanta Center
Thu 08:25:46 AM 35.9531 -82.5331 North 212 244 18,800 1,200 Climbing Atlanta Center
Thu 08:26:46 AM 36.0031 -82.5294 North 212 244 19,900 1,150 Climbing Atlanta Center
Thu 08:27:46 AM 36.0614 -82.5283 North 206 237 21,100 1,200 Climbing Atlanta Center
Thu 08:28:46 AM 36.1156 -82.5222 North 200 230 22,300 1,150 Climbing Atlanta Center
Thu 08:29:46 AM 36.1719 -82.5186 North 200 230 23,400 1,100 Climbing Atlanta Center
Thu 08:30:46 AM 36.2281 -82.5150 North 195 224 24,500 1,100 Climbing Atlanta Center
Thu 08:31:46 AM 36.2822 -82.5114 North 195 224 25,600 750 Climbing Atlanta Center
Thu 08:32:46 AM 36.3386 -82.5078 North 200 230 26,000 149 Climbing Atlanta Center
Thu 08:34:27 AM 36.4483 -82.5006 North 243 280 26,000  Level Indianapolis Center
Thu 08:35:28 AM 36.5314 -82.4953 North 254 292 26,000  Level Indianapolis Center
Thu 08:36:30 AM 36.6044 -82.4903 North 261 300 26,000  Level Indianapolis Center
Thu 08:37:32 AM 36.6769 -82.4853 North 261 300 26,000  Level Indianapolis Center
Thu 08:38:33 AM 36.7497 -82.4803 North 262 302 26,000  Level Indianapolis Center
Thu 08:39:35 AM 36.8239 -82.4756 North 268 308 26,000  Level Indianapolis Center
Thu 08:40:37 AM 36.8961 -82.4706 North 263 303 26,000  Level Indianapolis Center
Thu 08:41:39 AM 36.9803 -82.4664 North 262 302 26,000  Level Indianapolis Center
Thu 08:42:40 AM 37.0522 -82.4619 North 260 299 26,000  Level Indianapolis Center
Thu 08:43:42 AM 37.1236 -82.4558 North 257 296 26,000  Level Indianapolis Center
Thu 08:44:44 AM 37.1956 -82.4522 North 258 297 26,000  Level Indianapolis Center
Thu 08:45:45 AM 37.2681 -82.4475 North 260 299 26,000  Level Indianapolis Center
Thu 08:46:47 AM 37.3522 -82.4422 North 258 297 26,000  Level Indianapolis Center
Thu 08:47:49 AM 37.4250 -82.4372 North 262 302 26,000  Level Indianapolis Center
Thu 08:48:51 AM 37.4986 -82.4325 North 263 303 26,000  Level Indianapolis Center
Thu 08:49:52 AM 37.5722 -82.4281 North 263 303 26,000  Level Indianapolis Center
Thu 08:50:54 AM 37.6450 -82.4219 North 263 303 26,000  Level Indianapolis Center
Thu 08:51:56 AM 37.7175 -82.4167 North 260 299 26,000  Level Indianapolis Center
Thu 08:52:58 AM 37.8031 -82.4117 North 263 303 26,000  Level Indianapolis Center
Thu 08:54:00 AM 37.8753 -82.4075 North 260 299 26,000  Level Indianapolis Center
Thu 08:55:01 AM 37.9475 -82.4017 North 259 298 26,000  Level Indianapolis Center
Thu 08:56:03 AM 38.0203 -82.3975 North 261 300 26,000  Level Indianapolis Center
Thu 08:57:05 AM 38.0925 -82.3928 North 260 299 26,000  Level Indianapolis Center
Thu 08:58:07 AM 38.1731 -82.3872 North 259 298 26,000  Level Indianapolis Center
Thu 08:59:09 AM 38.2461 -82.3817 North 262 302 26,000  Level Indianapolis Center
Thu 09:00:11 AM 38.3186 -82.3769 North 260 299 26,000  Level Indianapolis Center
Thu 09:01:13 AM 38.3900 -82.3722 North 256 295 26,000  Level Indianapolis Center
Thu 09:02:14 AM 38.4617 -82.3675 North 256 295 26,000  Level Indianapolis Center
Thu 09:03:16 AM 38.5333 -82.3631 North 256 295 26,000  Level Indianapolis Center
Thu 09:04:18 AM 38.6042 -82.3578 North 254 292 26,000  Level Indianapolis Center
Thu 09:05:20 AM 38.6758 -82.3531 North 255 293 26,000  Level Indianapolis Center
Thu 09:06:22 AM 38.7611 -82.3472 North 254 292 26,000  Level Indianapolis Center
Thu 09:07:24 AM 38.8325 -82.3422 North 255 293 26,000  Level Indianapolis Center
Thu 09:08:26 AM 38.9033 -82.3375 North 254 292 26,000  Level Indianapolis Center
Thu 09:09:28 AM 38.9756 -82.3325 North 258 297 26,000  Level Indianapolis Center
Thu 09:10:30 AM 39.0475 -82.3275 North 258 297 26,000  Level Indianapolis Center
Thu 09:11:32 AM 39.1197 -82.3228 North 259 298 26,000  Level Indianapolis Center
Thu 09:12:34 AM 39.1928 -82.3167 North 262 302 26,000  Level Indianapolis Center
Thu 09:13:36 AM 39.2653 -82.3125 North 260 299 26,000  Level Indianapolis Center
Thu 09:14:38 AM 39.3519 -82.3058 North 259 298 26,000  Level Indianapolis Center
Thu 09:15:40 AM 39.4247 -82.3011 North 261 300 26,000  Level Indianapolis Center
Thu 09:16:42 AM 39.5008 -82.2961 North 260 299 26,000  Level Indianapolis Center
Thu 09:17:44 AM 39.5728 -82.2906 North 258 297 26,000  Level Indianapolis Center
Thu 09:18:46 AM 39.6458 -82.2850 North 260 299 26,000  Level Indianapolis Center
Thu 09:19:48 AM 39.7186 -82.2811 North 262 302 26,000  Level Indianapolis Center
Thu 09:20:50 AM 39.7908 -82.2747 North 260 299 26,000  Level Indianapolis Center
Thu 09:21:52 AM 39.8642 -82.2700 North 261 300 26,000  Level Indianapolis Center
Thu 09:22:54 AM 39.9497 -82.2647 North 262 302 26,000  Level Indianapolis Center
Thu 09:23:56 AM 40.0228 -82.2592 North 262 302 26,000  Level Indianapolis Center
Thu 09:24:58 AM 40.0958 -82.2539 North 261 300 26,000  Level Indianapolis Center
Thu 09:26:00 AM 40.1694 -82.2489 North 262 302 26,000  Level Indianapolis Center
Thu 09:27:02 AM 40.2422 -82.2433 North 261 300 26,000  Level Indianapolis Center
Thu 09:28:04 AM 40.3125 -82.2392 North 259 298 26,000  Level Indianapolis Center
Thu 09:29:06 AM 40.3978 -82.2319 North 262 302 26,000  Level Indianapolis Center
Thu 09:30:08 AM 40.4703 -82.2275 North 259 298 26,000  Level Indianapolis Center
Thu 09:31:10 AM 40.5414 -82.2414 352° North 254 292 26,000  Level Indianapolis Center
Thu 09:32:12 AM 40.6136 -82.2628 347° North 260 299 26,000  Level Indianapolis Center
Thu 09:32:46 AM 40.6486 -82.2717 349° North 261 300 26,000  Level Cleveland Center
Thu 09:33:46 AM 40.7192 -82.2953 346° North 256 295 26,000  Level Cleveland Center
Thu 09:34:45 AM 40.7897 -82.3136 349° North 256 295 26,000 -504 Level Cleveland Center
Thu 09:35:45 AM 40.8625 -82.3347 348° North 256 295 25,000 -992 Descending Cleveland Center
Thu 09:36:46 AM 40.9475 -82.3589 348° North 274 315 24,000 -942 Descending Cleveland Center
Thu 09:37:46 AM 41.0222 -82.3831 346° North 279 321 23,100 -1,200 Descending Cleveland Center
Thu 09:38:46 AM 41.1011 -82.4072 347° North 279 321 21,600 -1,500 Descending Cleveland Center
Thu 09:39:46 AM 41.1758 -82.4286 348° North 279 321 20,100 -800 Descending Cleveland Center
Thu 09:40:46 AM 41.2483 -82.4500 347° North 274 315 20,000 -150 Descending Cleveland Center
Thu 09:41:46 AM 41.3169 -82.4686 348° North 262 302 19,800 -950 Descending Cleveland Center
Thu 09:42:46 AM 41.3894 -82.4900 348° North 257 296 18,100 -1,412 Descending Cleveland Center
Thu 09:43:45 AM 41.4558 -82.5086 348° North 257 296 17,000 -1,361 Descending Cleveland Center
Thu 09:44:45 AM 41.5242 -82.5467 337° Northwest 257 296 15,400 -1,350 Descending Cleveland Center
Thu 09:45:45 AM 41.5747 -82.6261 310° West 272 313 14,300 -1,212 Descending Cleveland Center
Thu 09:46:29 AM 41.6153 -82.6883 311° West 273 314 13,300 -1,200 Descending Cleveland Center
Thu 09:46:45 AM 41.6236 -82.7025 308° West 272 313 13,100 -1,059 Descending Cleveland Center
Thu 09:47:54 AM 41.6819 -82.8019 308° West 274 315 11,800 -1,091 Descending Cleveland Center
Thu 09:48:46 AM 41.7164 -82.8586 309° West 277 319 10,900 -1,101 Descending Cleveland Center
Thu 09:49:43 AM 41.7669 -82.9411 309° West 265 305 9,800 -1,128 Descending Cleveland Center
Thu 09:50:43 AM 41.8131 -83.0181 309° West 265 305 8,700 -1,073 Descending Cleveland Center
Thu 09:51:46 AM 41.8594 -83.0981 308° West 277 319 7,600 -1,086 Descending Cleveland Center
Thu 09:52:39 AM 41.9039 -83.1639 312° West 265 305 6,600 -1,160 Descending Cleveland Center
Thu 09:53:45 AM 41.9519 -83.2494 307° West 272 313 5,300 -1,143 Descending Cleveland Center
Thu 09:54:45 AM 41.9961 -83.3242 309° West 266 306 4,200 -1,091 Descending Cleveland Center
Thu 09:55:46 AM 42.0400 -83.3986 308° West 260 299 3,100 -716 Descending Cleveland Center
Thu 09:56:59 AM 42.0922 -83.4850 309° West 217 250 2,600 -246 Descending Cleveland Center
Thu 09:57:48 AM 42.1200 -83.5339 307° West 209 241 2,600 -164 Level Cleveland Center
Thu 09:58:49 AM 42.1650 -83.5722 328° Northwest 180 207 2,300 -443 Descending Cleveland Center
Thu 09:59:50 AM 42.2044 -83.5797 352° North 125 144 1,700 -590 Descending Cleveland Center
Thu 10:01:00 AM 42.2393 -83.5310 46° Northeast  Level Estimated
Thu 10:08:00 AM 42.2393 -83.5310 43° Northeast  Level Estimated
Thu 10:09:00 AM 42.2393 -83.5310 43° Northeast  Level Estimated
Thu 10:10:00 AM 42.2393 -83.5310 43° Northeast  Level Estimated

Login

Don't have an account? Register now (free) for customized features, flight alerts, and more!